Time;durP1;ratioP1;P1;durP2;ratioP2;P2;SDS_P1;SDS_P2;PMS_P1;PMS_P2;Temp;Humidity;BMP_temperature;BMP_pressure;BME280_temperature;BME280_humidity;BME280_pressure;Samples;Min_cycle;Max_cycle;Signal;HPM_P1;HPM_P2
2024/01/23 00:01:43;;;;;;;3.90;1.40;;;6.10;99.90;;;6.38;100.00;98505.59;5032831;28;20504;-83
2024/01/23 00:04:12;;;;;;;11.70;1.77;;;6.00;99.90;;;6.41;100.00;98503.50;5034983;28;20461;-82
2024/01/23 00:06:42;;;;;;;10.10;1.70;;;6.00;99.90;;;6.38;100.00;98498.63;5033018;28;20906;-83
2024/01/23 00:09:10;;;;;;;7.90;2.00;;;6.10;99.90;;;6.40;100.00;98511.44;5030159;28;20484;-82
2024/01/23 00:11:39;;;;;;;4.37;1.67;;;6.00;99.90;;;6.42;100.00;98509.53;5031013;28;20470;-82
2024/01/23 00:14:09;;;;;;;7.23;1.30;;;6.00;99.90;;;6.40;100.00;98501.88;5032331;28;20471;-82
2024/01/23 00:16:38;;;;;;;4.83;1.57;;;6.00;99.90;;;6.41;100.00;98497.50;5029573;28;21031;-83
2024/01/23 00:19:07;;;;;;;10.27;1.97;;;6.10;99.90;;;6.39;100.00;98505.41;5028230;28;20469;-82
2024/01/23 00:21:35;;;;;;;13.23;2.20;;;6.00;99.90;;;6.40;100.00;98499.28;5028486;28;20501;-82
2024/01/23 00:24:05;;;;;;;6.77;1.83;;;6.10;99.90;;;6.41;100.00;98493.13;5034917;28;20459;-83
2024/01/23 00:26:33;;;;;;;7.60;1.90;;;6.10;99.90;;;6.38;100.00;98488.22;5030520;28;20557;-83
2024/01/23 00:29:03;;;;;;;4.73;1.60;;;6.00;99.90;;;6.33;100.00;98485.25;5033967;28;20466;-81
2024/01/23 00:31:32;;;;;;;3.97;2.03;;;6.00;99.90;;;6.32;100.00;98498.38;5033986;28;20548;-83
2024/01/23 00:34:01;;;;;;;12.23;3.33;;;5.90;99.90;;;6.32;100.00;98490.56;5035014;28;20469;-83
2024/01/23 00:36:29;;;;;;;6.20;1.73;;;5.90;99.90;;;6.28;100.00;98508.25;5033865;28;20868;-83
2024/01/23 00:38:58;;;;;;;6.63;1.87;;;5.90;99.90;;;6.27;100.00;98505.81;5034490;28;20487;-83
2024/01/23 00:41:27;;;;;;;15.17;2.33;;;5.90;99.90;;;6.25;100.00;98495.56;5034841;28;20574;-83
2024/01/23 00:43:55;;;;;;;5.97;1.50;;;5.90;99.90;;;6.23;100.00;98505.28;5035051;28;20464;-82
2024/01/23 00:46:24;;;;;;;8.10;2.30;;;5.90;99.90;;;6.22;100.00;98510.63;5034388;28;20469;-82
2024/01/23 00:48:54;;;;;;;13.77;2.20;;;5.90;99.90;;;6.19;100.00;98523.91;5032800;28;20490;-83
2024/01/23 00:51:23;;;;;;;10.97;1.83;;;5.90;99.90;;;6.21;100.00;98527.19;5034639;28;20470;-83
2024/01/23 00:53:52;;;;;;;12.33;2.20;;;5.80;99.90;;;6.23;100.00;98533.84;5032733;28;20526;-83
2024/01/23 00:56:21;;;;;;;3.37;1.33;;;5.90;99.90;;;6.25;100.00;98539.69;5031550;28;21083;-82
2024/01/23 00:58:49;;;;;;;11.70;2.23;;;5.90;99.90;;;6.24;100.00;98553.66;5032405;28;20510;-83
2024/01/23 01:01:18;;;;;;;3.50;1.87;;;5.90;99.90;;;6.26;100.00;98545.72;5035718;28;20508;-82
2024/01/23 01:03:47;;;;;;;7.80;2.13;;;5.90;99.90;;;6.30;100.00;98558.25;5033664;28;20879;-83
2024/01/23 01:06:17;;;;;;;14.63;2.90;;;5.90;99.90;;;6.27;100.00;98555.97;5031220;28;20512;-83
2024/01/23 01:08:45;;;;;;;5.43;1.80;;;5.90;99.90;;;6.26;100.00;98564.72;5035319;28;20534;-83
2024/01/23 01:11:14;;;;;;;15.00;2.60;;;5.90;99.90;;;6.26;100.00;98572.50;5032537;28;20469;-83
2024/01/23 01:13:43;;;;;;;9.90;1.80;;;5.80;99.90;;;6.28;100.00;98569.78;5034352;28;20971;-83
2024/01/23 01:16:11;;;;;;;9.97;1.80;;;5.90;99.90;;;6.26;100.00;98567.31;5030431;28;20466;-83
2024/01/23 01:18:40;;;;;;;12.23;2.40;;;5.90;99.90;;;6.24;100.00;98574.44;5033141;28;20470;-83
2024/01/23 01:21:09;;;;;;;5.00;1.40;;;5.80;99.90;;;6.16;100.00;98553.56;5034362;28;20551;-83
2024/01/23 01:23:40;;;;;;;4.70;1.60;;;5.80;99.90;;;6.17;100.00;98559.59;5033624;28;20946;-83
2024/01/23 01:26:08;;;;;;;12.80;2.03;;;5.80;99.90;;;6.11;100.00;98568.75;5031614;28;20480;-83
2024/01/23 01:28:38;;;;;;;3.10;1.20;;;5.70;99.90;;;6.15;100.00;98575.28;5033704;28;20476;-83
2024/01/23 01:31:06;;;;;;;10.90;2.07;;;5.80;99.90;;;6.19;100.00;98560.25;5032569;28;20527;-83
2024/01/23 01:33:35;;;;;;;7.57;1.47;;;5.80;99.90;;;6.16;100.00;98566.56;5032564;28;20472;-84
2024/01/23 01:36:05;;;;;;;11.20;2.00;;;5.80;99.90;;;6.16;100.00;98576.13;5031906;28;20470;-83
2024/01/23 01:38:39;;;;;;;9.60;1.70;;;5.70;99.90;;;6.08;100.00;98569.06;5035868;28;20481;-83
2024/01/23 01:41:15;;;;;;;6.37;1.60;;;5.70;99.90;;;6.09;100.00;98565.50;5031524;28;20485;-83
2024/01/23 01:43:44;;;;;;;4.43;1.63;;;5.70;99.90;;;6.12;100.00;98565.22;5034217;28;20469;-83
2024/01/23 01:46:19;;;;;;;3.90;1.50;;;5.70;99.90;;;6.12;100.00;98578.19;5030991;28;20462;-83
2024/01/23 01:48:48;;;;;;;8.70;2.13;;;5.70;99.90;;;6.15;100.00;98571.88;5030405;28;20516;-83
2024/01/23 01:51:22;;;;;;;9.90;2.10;;;5.70;99.90;;;6.15;100.00;98580.50;5036272;28;20461;-83
2024/01/23 01:53:53;;;;;;;17.07;1.53;;;5.80;99.90;;;6.14;100.00;98578.06;5036915;28;20469;-83
2024/01/23 01:56:22;;;;;;;5.00;1.90;;;5.80;99.90;;;6.14;100.00;98593.63;5032340;28;20466;-83
2024/01/23 01:58:52;;;;;;;6.20;1.80;;;5.80;99.90;;;6.17;100.00;98599.34;5030885;28;20465;-83
2024/01/23 02:01:22;;;;;;;7.13;2.03;;;5.80;99.90;;;6.15;100.00;98605.63;5031694;28;20509;-83
2024/01/23 02:03:50;;;;;;;4.90;1.60;;;5.70;99.90;;;6.18;100.00;98605.38;5032334;28;20497;-82
2024/01/23 02:06:19;;;;;;;7.67;1.53;;;5.80;99.90;;;6.17;100.00;98591.56;5029528;28;20941;-83
2024/01/23 02:08:50;;;;;;;3.57;2.27;;;5.80;99.90;;;6.13;100.00;98608.38;5032632;28;20465;-83
2024/01/23 02:11:20;;;;;;;6.03;1.90;;;5.70;99.90;;;6.16;100.00;98592.53;5031813;28;20519;-83
2024/01/23 02:13:49;;;;;;;1.73;1.30;;;5.80;99.90;;;6.15;100.00;98611.66;5036280;28;21003;-83
2024/01/23 02:16:18;;;;;;;11.63;1.80;;;5.80;99.90;;;6.16;100.00;98613.28;5032493;28;20472;-83
2024/01/23 02:18:47;;;;;;;11.83;2.07;;;5.80;99.90;;;6.11;100.00;98610.28;5030984;28;21017;-83
2024/01/23 02:21:17;;;;;;;4.50;1.30;;;5.70;99.90;;;6.13;100.00;98598.00;5032858;28;20542;-83
2024/01/23 02:23:47;;;;;;;6.47;1.40;;;5.70;99.90;;;6.14;100.00;98597.06;5031894;28;20461;-83
2024/01/23 02:26:16;;;;;;;3.80;1.43;;;5.80;99.90;;;6.13;100.00;98598.00;5032574;28;20470;-83
2024/01/23 02:28:44;;;;;;;5.77;1.90;;;5.80;99.90;;;6.09;100.00;98612.22;5031712;28;20500;-83
2024/01/23 02:31:13;;;;;;;9.63;1.80;;;5.80;99.90;;;6.08;100.00;98624.38;5030294;28;20475;-83
2024/01/23 02:33:42;;;;;;;15.13;1.83;;;5.80;99.90;;;6.08;100.00;98626.16;5031612;28;20492;-83
2024/01/23 02:36:11;;;;;;;14.50;1.77;;;5.70;99.90;;;6.07;100.00;98620.16;5030928;28;20458;-83
2024/01/23 02:38:39;;;;;;;5.30;1.60;;;5.80;99.90;;;6.07;100.00;98614.16;5031358;28;21013;-83
2024/01/23 02:41:09;;;;;;;7.13;1.80;;;5.70;99.90;;;6.04;100.00;98627.41;5033768;28;20484;-83
2024/01/23 02:43:38;;;;;;;11.33;2.23;;;5.70;99.90;;;6.06;100.00;98635.88;5029753;28;20761;-82
2024/01/23 02:46:06;;;;;;;9.00;2.13;;;5.70;99.90;;;6.07;100.00;98640.13;5031569;28;20871;-83
2024/01/23 02:48:35;;;;;;;7.90;2.47;;;5.70;99.90;;;6.04;100.00;98645.56;5034807;28;21136;-82
2024/01/23 02:51:04;;;;;;;7.70;2.17;;;5.70;99.90;;;6.08;100.00;98646.94;5030812;28;21360;-83
2024/01/23 02:53:33;;;;;;;17.47;2.37;;;5.70;99.90;;;6.09;100.00;98658.97;5031635;28;20485;-83
2024/01/23 02:56:02;;;;;;;6.90;2.77;;;5.80;99.90;;;6.13;100.00;98659.50;5028925;28;20461;-83
2024/01/23 02:58:32;;;;;;;2.67;2.10;;;5.80;99.90;;;6.14;100.00;98667.16;5030020;28;20469;-83
2024/01/23 03:01:00;;;;;;;18.17;2.73;;;5.70;99.90;;;6.16;100.00;98670.41;5030061;28;20457;-83
2024/01/23 03:03:29;;;;;;;7.67;1.97;;;5.80;99.90;;;6.15;100.00;98668.75;5029223;28;20866;-83
2024/01/23 03:05:58;;;;;;;11.03;2.53;;;5.80;99.90;;;6.16;100.00;98670.41;5031407;28;20469;-82
2024/01/23 03:08:27;;;;;;;8.33;1.80;;;5.80;99.90;;;6.15;100.00;98676.56;5028579;28;20905;-82
2024/01/23 03:10:55;;;;;;;20.17;2.30;;;5.80;99.90;;;6.17;100.00;98673.81;5035650;28;20480;-83
2024/01/23 03:13:24;;;;;;;5.37;2.13;;;5.80;99.90;;;6.20;100.00;98676.94;5030035;28;20473;-83
2024/01/23 03:15:54;;;;;;;19.07;1.97;;;5.80;99.90;;;6.21;100.00;98678.59;5027951;28;20959;-82
2024/01/23 03:18:22;;;;;;;8.17;2.20;;;5.80;99.90;;;6.21;100.00;98682.97;5032894;28;20479;-83
2024/01/23 03:20:52;;;;;;;5.17;1.70;;;5.80;99.90;;;6.19;100.00;98685.69;5032072;28;20458;-83
2024/01/23 03:23:21;;;;;;;6.17;2.00;;;5.70;99.90;;;6.15;100.00;98699.09;5032150;28;20498;-83
2024/01/23 03:25:49;;;;;;;13.40;2.27;;;5.80;99.90;;;6.17;100.00;98703.22;5029552;28;20516;-82
2024/01/23 03:28:18;;;;;;;10.83;2.67;;;5.80;99.90;;;6.14;100.00;98708.69;5031555;28;20477;-83
2024/01/23 03:30:46;;;;;;;6.10;2.30;;;5.80;99.90;;;6.14;100.00;98721.66;5034108;28;20469;-83
2024/01/23 03:33:16;;;;;;;14.37;2.63;;;5.80;99.90;;;6.14;100.00;98710.47;5032241;28;20839;-83
2024/01/23 03:35:46;;;;;;;6.13;1.90;;;5.80;99.90;;;6.17;100.00;98718.78;5031007;28;20465;-83
2024/01/23 03:38:15;;;;;;;7.50;2.23;;;5.80;99.90;;;6.15;100.00;98712.91;5031852;28;20917;-83
2024/01/23 03:40:44;;;;;;;10.03;2.47;;;5.80;99.90;;;6.19;100.00;98722.03;5030809;28;20953;-83
2024/01/23 03:43:13;;;;;;;6.27;1.87;;;5.80;99.90;;;6.20;100.00;98707.28;5032018;28;21017;-83
2024/01/23 03:45:41;;;;;;;6.60;1.83;;;5.80;99.90;;;6.20;100.00;98710.72;5031629;28;20522;-83
2024/01/23 03:48:10;;;;;;;12.17;2.00;;;5.80;99.90;;;6.20;100.00;98722.88;5029709;28;20925;-83
2024/01/23 03:50:40;;;;;;;8.13;1.60;;;5.80;99.90;;;6.22;100.00;98728.72;5033275;28;21151;-83
2024/01/23 03:53:08;;;;;;;14.70;2.30;;;5.90;99.90;;;6.20;100.00;98734.06;5031976;28;20477;-83
2024/01/23 03:55:37;;;;;;;6.20;1.63;;;5.80;99.90;;;6.21;100.00;98737.50;5031213;28;20974;-83
2024/01/23 03:58:06;;;;;;;7.90;2.30;;;5.90;99.90;;;6.22;100.00;98758.09;5028874;28;20470;-84
2024/01/23 04:00:34;;;;;;;11.40;1.90;;;5.80;99.90;;;6.20;100.00;98752.25;5031048;28;20488;-83
2024/01/23 04:03:05;;;;;;;11.13;2.43;;;5.80;99.90;;;6.19;100.00;98766.19;5029428;28;20767;-83
2024/01/23 04:05:33;;;;;;;7.70;2.30;;;5.80;99.90;;;6.22;100.00;98765.91;5037540;28;20467;-82
2024/01/23 04:08:04;;;;;;;16.03;2.30;;;5.80;99.90;;;6.26;100.00;98775.06;5039937;28;20466;-83
2024/01/23 04:10:33;;;;;;;11.03;1.80;;;5.90;99.90;;;6.27;100.00;98787.09;5038498;28;20476;-83
2024/01/23 04:13:02;;;;;;;12.20;2.53;;;5.80;99.90;;;6.25;100.00;98783.78;5033080;28;20520;-83
2024/01/23 04:15:31;;;;;;;11.17;2.67;;;5.80;99.90;;;6.25;100.00;98776.00;5034278;28;20473;-83
2024/01/23 04:18:00;;;;;;;10.83;1.63;;;5.70;99.90;;;6.20;100.00;98778.22;5033757;28;21025;-83
2024/01/23 04:20:29;;;;;;;8.47;1.90;;;5.80;99.90;;;6.18;100.00;98792.31;5033078;28;20483;-82
2024/01/23 04:22:57;;;;;;;13.07;2.07;;;5.70;99.90;;;6.07;100.00;98795.88;5033021;28;20909;-82
2024/01/23 04:25:27;;;;;;;9.03;2.10;;;5.70;99.90;;;6.05;100.00;98792.59;5034298;28;20980;-82
2024/01/23 04:27:57;;;;;;;8.97;2.90;;;5.60;99.90;;;6.08;100.00;98793.13;5033006;28;20541;-83
2024/01/23 04:30:26;;;;;;;9.43;2.37;;;5.50;99.90;;;6.07;100.00;98806.28;5034939;28;21055;-82
2024/01/23 04:32:55;;;;;;;10.53;3.40;;;5.70;99.90;;;6.10;100.00;98812.94;5031666;28;20463;-82
2024/01/23 04:35:24;;;;;;;10.10;1.87;;;5.70;99.90;;;6.08;100.00;98807.88;5035114;28;20871;-82
2024/01/23 04:37:53;;;;;;;4.87;1.90;;;5.70;99.90;;;6.05;100.00;98814.19;5031630;28;20725;-82
2024/01/23 04:40:22;;;;;;;9.70;1.90;;;5.60;99.90;;;6.05;100.00;98819.38;5031824;28;20523;-82
2024/01/23 04:42:52;;;;;;;7.60;2.10;;;5.60;99.90;;;6.04;100.00;98819.50;5034836;28;20753;-82
2024/01/23 04:45:20;;;;;;;7.93;2.10;;;5.60;99.90;;;6.05;100.00;98826.34;5031841;28;20470;-82
2024/01/23 04:47:49;;;;;;;8.77;2.07;;;5.60;99.90;;;6.01;100.00;98817.19;5033735;28;20553;-82
2024/01/23 04:50:18;;;;;;;16.30;2.93;;;5.60;99.90;;;6.03;100.00;98815.28;5033628;28;20758;-83
2024/01/23 04:52:46;;;;;;;19.90;2.60;;;5.60;99.90;;;6.01;100.00;98827.56;5031810;28;20844;-82
2024/01/23 04:55:15;;;;;;;13.50;2.30;;;5.60;99.90;;;5.98;100.00;98828.69;5030871;28;20878;-81
2024/01/23 04:57:44;;;;;;;9.07;2.23;;;5.60;99.90;;;5.95;100.00;98828.97;5035410;28;20470;-82
2024/01/23 05:00:17;;;;;;;23.97;2.37;;;5.50;99.90;;;5.96;100.00;98828.00;5034283;28;20554;-82
2024/01/23 05:02:46;;;;;;;10.03;1.67;;;5.60;99.90;;;5.95;100.00;98843.72;5033692;28;20490;-82
2024/01/23 05:05:15;;;;;;;5.80;2.50;;;5.60;99.90;;;5.98;100.00;98840.84;5034856;28;20462;-82
2024/01/23 05:07:44;;;;;;;15.73;2.53;;;5.60;99.90;;;5.99;100.00;98850.28;5034327;28;20584;-82
2024/01/23 05:10:12;;;;;;;13.73;2.37;;;5.60;99.90;;;5.97;100.00;98863.38;5032685;28;20474;-82
2024/01/23 05:12:41;;;;;;;15.97;2.43;;;5.60;99.90;;;5.94;100.00;98862.81;5034656;28;20481;-82
2024/01/23 05:15:10;;;;;;;12.83;2.40;;;5.60;99.90;;;5.91;100.00;98863.94;5033597;28;20470;-82
2024/01/23 05:17:40;;;;;;;18.80;3.00;;;5.60;99.90;;;5.88;100.00;98879.78;5033600;28;20462;-82
2024/01/23 05:20:09;;;;;;;7.60;1.90;;;5.50;99.90;;;5.86;100.00;98888.66;5032852;28;20502;-82
2024/01/23 05:22:38;;;;;;;4.70;2.30;;;5.40;99.90;;;5.80;100.00;98899.53;5031162;28;20481;-83
2024/01/23 05:25:08;;;;;;;10.43;2.67;;;5.30;99.90;;;5.80;100.00;98915.94;5032298;28;20462;-82
2024/01/23 05:27:37;;;;;;;17.30;2.80;;;5.30;99.90;;;5.80;100.00;98920.28;5030618;28;20461;-82
2024/01/23 05:30:08;;;;;;;16.00;2.23;;;5.30;99.90;;;5.79;100.00;98921.28;5029322;28;20469;-81
2024/01/23 05:32:36;;;;;;;10.27;2.50;;;5.40;99.90;;;5.71;100.00;98928.91;5034489;28;20816;-82
2024/01/23 05:35:08;;;;;;;15.80;3.77;;;5.30;99.90;;;5.68;100.00;98927.41;5031856;28;20465;-82
2024/01/23 05:37:36;;;;;;;10.13;1.90;;;5.30;99.90;;;5.70;100.00;98929.84;5033303;28;20482;-82
2024/01/23 05:40:10;;;;;;;10.83;2.30;;;5.30;99.90;;;5.59;100.00;98936.78;5034243;28;21034;-82
2024/01/23 05:42:39;;;;;;;6.30;2.20;;;5.20;99.90;;;5.63;100.00;98931.34;5036483;28;20468;-82
2024/01/23 05:45:10;;;;;;;11.50;2.50;;;5.30;99.90;;;5.64;100.00;98940.75;5031535;28;20575;-82
2024/01/23 05:47:39;;;;;;;9.23;1.80;;;5.20;99.90;;;5.64;100.00;98945.94;5031994;28;20468;-82
2024/01/23 05:50:10;;;;;;;9.10;1.40;;;5.20;99.90;;;5.66;100.00;98949.25;5032380;28;20461;-82
2024/01/23 05:52:39;;;;;;;10.47;2.57;;;5.20;99.90;;;5.58;100.00;98950.75;5032558;28;20481;-82
2024/01/23 05:55:08;;;;;;;11.50;2.10;;;5.20;99.90;;;5.55;100.00;98956.16;5033662;28;20465;-82
2024/01/23 05:57:37;;;;;;;7.43;1.47;;;5.20;99.90;;;5.57;100.00;98959.47;5031915;28;20458;-82
2024/01/23 06:00:11;;;;;;;11.03;1.97;;;5.20;99.90;;;5.56;100.00;98975.16;5032248;28;20469;-82
2024/01/23 06:02:40;;;;;;;8.30;2.33;;;5.20;99.90;;;5.50;100.00;98973.91;5032395;28;20874;-82
2024/01/23 06:05:10;;;;;;;8.03;1.80;;;5.10;99.90;;;5.47;100.00;98978.53;5033488;28;20461;-82
2024/01/23 06:07:41;;;;;;;14.20;2.60;;;5.00;99.90;;;5.39;100.00;98984.38;5032947;28;21047;-82
2024/01/23 06:10:10;;;;;;;13.43;1.73;;;4.90;99.90;;;5.32;100.00;98985.84;5035593;28;20459;-82
2024/01/23 06:12:39;;;;;;;5.80;2.00;;;4.80;99.90;;;5.19;100.00;98987.84;5034989;28;20458;-82
2024/01/23 06:15:09;;;;;;;12.93;2.20;;;4.80;99.90;;;5.13;100.00;99006.53;5028375;28;21982;-82
2024/01/23 06:17:38;;;;;;;8.20;1.70;;;4.50;99.90;;;5.07;100.00;99009.59;5034048;28;20458;-82
2024/01/23 06:20:12;;;;;;;3.63;2.00;;;4.50;99.90;;;5.01;100.00;99010.13;5031666;28;20960;-83
2024/01/23 06:22:41;;;;;;;20.73;2.23;;;4.50;99.90;;;4.94;100.00;99025.38;5033718;28;20986;-82
2024/01/23 06:25:15;;;;;;;5.83;1.50;;;4.40;99.90;;;4.93;100.00;99035.84;5030244;28;20589;-82
2024/01/23 06:27:43;;;;;;;6.40;1.60;;;4.40;99.90;;;4.87;100.00;99046.72;5032536;28;20472;-82
2024/01/23 06:30:14;;;;;;;12.17;2.43;;;4.30;99.90;;;4.75;100.00;99038.22;5031883;28;20971;-82
2024/01/23 06:32:43;;;;;;;10.90;1.80;;;4.20;99.90;;;4.72;100.00;99043.63;5037994;28;20457;-82
2024/01/23 06:35:13;;;;;;;5.47;2.40;;;4.20;99.90;;;4.63;100.00;99043.56;5033512;28;20540;-82
2024/01/23 06:37:42;;;;;;;16.67;2.60;;;4.20;99.90;;;4.64;100.00;99045.22;5032137;28;20482;-82
2024/01/23 06:40:12;;;;;;;5.90;1.80;;;4.10;99.90;;;4.61;100.00;99050.63;5029793;28;20846;-82
2024/01/23 06:42:41;;;;;;;7.63;2.37;;;4.10;99.90;;;4.58;100.00;99055.09;5031521;28;20869;-82
2024/01/23 06:45:10;;;;;;;11.40;2.60;;;4.10;99.90;;;4.54;100.00;99066.69;5030843;28;20501;-82
2024/01/23 06:47:39;;;;;;;12.30;1.67;;;4.00;99.90;;;4.53;100.00;99074.56;5028736;28;20838;-82
2024/01/23 06:50:08;;;;;;;5.77;3.10;;;3.90;99.90;;;4.49;100.00;99071.41;5028828;28;20486;-80
2024/01/23 06:52:38;;;;;;;7.37;1.97;;;3.90;99.90;;;4.49;100.00;99081.75;5026941;28;20473;-81
2024/01/23 06:55:07;;;;;;;6.60;1.80;;;3.90;99.90;;;4.44;100.00;99090.84;5027614;28;20531;-81
2024/01/23 06:57:36;;;;;;;11.53;1.67;;;3.90;99.90;;;4.46;100.00;99092.38;5030075;28;20900;-82
2024/01/23 07:00:08;;;;;;;50.37;22.97;;;3.80;99.90;;;4.46;100.00;99089.78;5027797;28;20830;-83
2024/01/23 07:02:37;;;;;;;5.97;2.13;;;4.00;99.90;;;4.46;100.00;99091.53;5026883;28;20462;-82
2024/01/23 07:05:07;;;;;;;8.13;1.73;;;3.90;99.90;;;4.48;100.00;99092.22;5027173;28;20542;-82
2024/01/23 07:07:36;;;;;;;13.30;1.83;;;3.90;99.90;;;4.49;100.00;99094.72;5028184;28;20887;-81
2024/01/23 07:10:06;;;;;;;11.67;2.67;;;3.80;99.90;;;4.48;100.00;99090.47;5032061;28;20453;-80
2024/01/23 07:12:35;;;;;;;9.33;2.00;;;3.90;99.90;;;4.43;100.00;99091.78;5031157;28;20458;-81
2024/01/23 07:15:05;;;;;;;8.50;1.80;;;3.70;99.90;;;4.38;100.00;99092.16;5029827;28;20519;-80
2024/01/23 07:17:33;;;;;;;5.67;1.90;;;3.80;99.90;;;4.39;100.00;99088.63;5027131;28;20469;-80
2024/01/23 07:20:02;;;;;;;7.77;1.30;;;3.80;99.90;;;4.33;100.00;99089.13;5024547;28;20476;-80
2024/01/23 07:22:31;;;;;;;16.77;6.60;;;3.80;99.90;;;4.37;100.00;99098.25;5026162;28;20848;-81
2024/01/23 07:25:05;;;;;;;4.43;2.00;;;3.90;99.90;;;4.37;100.00;99111.19;5026353;28;21011;-80
2024/01/23 07:27:35;;;;;;;5.23;1.67;;;3.90;99.90;;;4.38;100.00;99117.22;5033627;28;20466;-79
2024/01/23 07:30:04;;;;;;;5.90;1.90;;;3.80;99.90;;;4.40;100.00;99126.53;5030075;28;20497;-79
2024/01/23 07:32:33;;;;;;;8.87;2.60;;;3.80;99.90;;;4.36;100.00;99132.88;5033556;28;20468;-80
2024/01/23 07:35:02;;;;;;;14.30;2.33;;;3.70;99.90;;;4.35;100.00;99126.03;5029749;28;20502;-79
2024/01/23 07:37:31;;;;;;;5.73;1.80;;;3.70;99.90;;;4.36;100.00;99125.13;5031833;28;21049;-79
2024/01/23 07:40:00;;;;;;;10.60;2.10;;;3.70;99.90;;;4.37;100.00;99131.91;5035913;28;20458;-79
2024/01/23 07:42:29;;;;;;;8.90;2.33;;;3.80;99.90;;;4.37;100.00;99134.50;5037137;28;21337;-80
2024/01/23 07:44:58;;;;;;;11.47;2.53;;;3.80;99.90;;;4.33;100.00;99130.53;5034478;28;20489;-79
2024/01/23 07:47:26;;;;;;;5.80;1.80;;;3.80;99.90;;;4.34;100.00;99137.34;5035509;28;20467;-79
2024/01/23 07:49:55;;;;;;;11.50;2.03;;;3.90;99.90;;;4.29;100.00;99147.25;5035361;28;20967;-79
2024/01/23 07:52:26;;;;;;;16.23;2.03;;;3.80;99.90;;;4.27;100.00;99148.31;5031491;28;20511;-80
2024/01/23 07:54:54;;;;;;;3.60;1.30;;;3.80;99.90;;;4.28;100.00;99152.53;5033510;28;20449;-80
2024/01/23 07:57:23;;;;;;;7.23;2.40;;;3.70;99.90;;;4.24;100.00;99159.72;5033431;28;20466;-81
2024/01/23 07:59:53;;;;;;;4.70;1.73;;;3.60;99.90;;;4.28;100.00;99161.13;5035103;28;20469;-81
2024/01/23 08:02:22;;;;;;;20.10;9.90;;;3.70;99.90;;;4.22;100.00;99159.03;5027729;28;20987;-80
2024/01/23 08:04:50;;;;;;;33.03;5.37;;;3.60;99.90;;;4.15;100.00;99169.97;5029469;28;20515;-79
2024/01/23 08:07:19;;;;;;;13.63;2.13;;;3.50;99.90;;;4.16;100.00;99169.03;5033709;28;20473;-79
2024/01/23 08:09:47;;;;;;;3.30;1.73;;;3.50;99.90;;;4.16;100.00;99169.88;5032500;28;21022;-79
2024/01/23 08:12:16;;;;;;;17.17;2.57;;;3.50;99.90;;;4.14;100.00;99170.91;5033555;28;20474;-79
2024/01/23 08:14:45;;;;;;;12.00;2.07;;;3.50;99.90;;;4.16;100.00;99169.88;5036805;28;20473;-79
2024/01/23 08:17:15;;;;;;;15.30;2.77;;;3.60;99.90;;;4.18;100.00;99173.13;5034766;28;20460;-78
2024/01/23 08:19:43;;;;;;;14.13;2.00;;;3.50;99.90;;;4.16;100.00;99177.63;5030643;28;20462;-79
2024/01/23 08:22:12;;;;;;;13.30;2.10;;;3.50;99.90;;;4.24;100.00;99162.31;5031818;28;20845;-79
2024/01/23 08:24:40;;;;;;;4.13;1.80;;;3.60;99.90;;;4.36;100.00;99176.06;5028546;28;20493;-80
2024/01/23 08:27:11;;;;;;;16.93;7.27;;;3.80;99.90;;;4.42;100.00;99178.16;5029849;28;20464;-79
2024/01/23 08:29:40;;;;;;;13.50;4.70;;;3.90;99.90;;;4.52;100.00;99185.09;5029490;28;20597;-79
2024/01/23 08:32:09;;;;;;;10.83;2.27;;;4.00;99.90;;;4.60;100.00;99189.69;5032374;28;20473;-80
2024/01/23 08:34:39;;;;;;;9.93;2.00;;;4.10;99.90;;;4.70;100.00;99194.94;5032605;28;20480;-80
2024/01/23 08:37:08;;;;;;;11.87;2.70;;;4.30;99.90;;;4.80;100.00;99211.41;5030922;28;21115;-80
2024/01/23 08:39:37;;;;;;;15.33;2.87;;;4.30;99.90;;;4.86;100.00;99213.53;5032165;28;20494;-81
2024/01/23 08:42:06;;;;;;;17.63;2.87;;;4.40;99.90;;;4.91;100.00;99209.63;5032044;28;20468;-80
2024/01/23 08:44:35;;;;;;;18.33;2.33;;;4.50;99.90;;;5.02;100.00;99206.16;5029120;28;20537;-79
2024/01/23 08:47:04;;;;;;;19.10;2.60;;;4.60;99.90;;;5.13;100.00;99208.72;5030457;28;20959;-81
2024/01/23 08:49:34;;;;;;;19.27;1.80;;;4.60;99.90;;;5.22;100.00;99217.50;5032113;28;20670;-80
2024/01/23 08:52:05;;;;;;;7.90;2.60;;;4.80;99.90;;;5.31;100.00;99224.56;5030293;28;20473;-80
2024/01/23 08:54:36;;;;;;;6.93;2.17;;;4.90;99.90;;;5.38;100.00;99216.13;5031728;28;20486;-80
2024/01/23 08:57:05;;;;;;;11.43;3.43;;;4.90;99.90;;;5.45;100.00;99237.19;5031580;28;20462;-80
2024/01/23 08:59:38;;;;;;;17.27;2.00;;;5.10;99.90;;;5.55;100.00;99233.72;5028248;28;20469;-80
2024/01/23 09:02:07;;;;;;;13.63;2.50;;;5.20;99.90;;;5.63;100.00;99237.47;5028620;28;20466;-80
2024/01/23 09:04:36;;;;;;;5.40;2.20;;;5.20;99.90;;;5.70;100.00;99255.00;5030760;28;21003;-79
2024/01/23 09:07:06;;;;;;;28.10;6.30;;;5.30;99.90;;;5.80;100.00;99260.25;5029045;28;20555;-82
2024/01/23 09:09:34;;;;;;;9.93;2.10;;;5.40;99.90;;;5.87;100.00;99269.19;5030091;28;20467;-80
2024/01/23 09:12:04;;;;;;;16.10;2.83;;;5.40;99.90;;;5.93;100.00;99269.53;5029117;28;20547;-80
2024/01/23 09:14:33;;;;;;;12.07;2.97;;;5.50;99.90;;;5.98;100.00;99282.13;5028457;28;20967;-79
2024/01/23 09:17:01;;;;;;;10.07;2.53;;;5.50;99.90;;;6.05;100.00;99280.66;5031727;28;20466;-79
2024/01/23 09:19:31;;;;;;;13.47;3.40;;;5.70;99.90;;;6.10;100.00;99272.50;5028673;28;20457;-80
2024/01/23 09:21:59;;;;;;;8.50;2.77;;;5.60;99.90;;;6.11;100.00;99280.16;5029486;28;20524;-81
2024/01/23 09:24:29;;;;;;;15.53;2.97;;;5.70;99.90;;;6.11;100.00;99277.53;5032162;28;20462;-80
2024/01/23 09:27:00;;;;;;;11.93;2.57;;;5.70;99.90;;;6.13;100.00;99283.44;5032900;28;20958;-83
2024/01/23 09:29:28;;;;;;;17.67;2.53;;;5.70;99.90;;;6.15;100.00;99289.31;5028184;28;20465;-82
2024/01/23 09:31:59;;;;;;;10.80;1.93;;;5.80;99.90;;;6.17;100.00;99300.44;5028990;28;20499;-81
2024/01/23 09:34:28;;;;;;;23.27;10.50;;;5.80;99.90;;;6.21;100.00;99298.41;5030041;28;20557;-81
2024/01/23 09:36:57;;;;;;;8.07;2.70;;;5.70;99.90;;;6.26;100.00;99304.00;5030060;28;20485;-81
2024/01/23 09:39:25;;;;;;;13.50;3.13;;;5.90;99.90;;;6.27;100.00;99310.84;5029393;28;20519;-81
2024/01/23 09:42:01;;;;;;;11.83;2.60;;;5.90;99.90;;;6.25;100.00;99313.56;5028914;28;20466;-81
2024/01/23 09:44:31;;;;;;;13.17;3.37;;;5.90;99.90;;;6.26;100.00;99324.78;5030762;28;20543;-81
2024/01/23 09:47:00;;;;;;;9.00;2.57;;;5.90;99.90;;;6.29;100.00;99324.53;5030247;28;20813;-82
2024/01/23 09:49:30;;;;;;;8.00;2.30;;;5.90;99.90;;;6.31;100.00;99333.03;5031752;28;20469;-82
2024/01/23 09:52:05;;;;;;;11.67;2.77;;;5.90;99.90;;;6.33;100.00;99326.75;5031367;28;20555;-82
2024/01/23 09:54:34;;;;;;;17.27;2.63;;;5.90;99.90;;;6.37;100.00;99330.75;5031318;28;20465;-82
2024/01/23 09:57:05;;;;;;;10.07;2.10;;;6.00;99.90;;;6.40;100.00;99330.47;5032315;28;20457;-82
2024/01/23 09:59:33;;;;;;;11.70;2.73;;;6.00;99.90;;;6.43;100.00;99332.81;5033066;28;20462;-82
2024/01/23 10:02:02;;;;;;;8.83;2.67;;;6.10;99.90;;;6.45;100.00;99333.53;5031673;28;20476;-81
2024/01/23 10:04:33;;;;;;;13.80;2.27;;;6.10;99.90;;;6.46;100.00;99342.94;5031471;28;20515;-81
2024/01/23 10:07:07;;;;;;;15.90;2.30;;;6.10;99.90;;;6.46;100.00;99329.97;5035837;28;20497;-82
2024/01/23 10:09:38;;;;;;;24.53;2.13;;;6.10;99.90;;;6.42;100.00;99341.56;5030509;28;20469;-81
2024/01/23 10:12:09;;;;;;;15.07;2.40;;;6.00;99.90;;;6.44;100.00;99344.03;5064723;28;20466;-82
2024/01/23 10:14:43;;;;;;;16.70;3.00;;;5.90;99.90;;;6.44;100.00;99338.84;5032162;28;20849;-82
2024/01/23 10:17:12;;;;;;;6.43;1.97;;;6.00;99.90;;;6.42;100.00;99344.16;5031005;28;20952;-82
2024/01/23 10:19:41;;;;;;;5.97;2.20;;;5.90;99.90;;;6.45;100.00;99324.91;5028571;28;20466;-82
2024/01/23 10:22:10;;;;;;;9.23;2.60;;;6.10;99.90;;;6.44;100.00;99326.69;5031270;28;20685;-82
2024/01/23 10:24:38;;;;;;;9.83;2.70;;;6.10;99.90;;;6.44;100.00;99318.88;5031484;28;20464;-82
2024/01/23 10:27:09;;;;;;;16.87;3.60;;;6.00;99.90;;;6.44;100.00;99318.88;5030139;28;20524;-82
2024/01/23 10:29:37;;;;;;;8.43;2.60;;;6.00;99.90;;;6.47;100.00;99313.44;5030199;28;20453;-82
2024/01/23 10:32:07;;;;;;;13.63;2.50;;;6.10;99.90;;;6.49;100.00;99321.91;5031160;28;20474;-81